Betagas — V2KA8 — position and weather

sailwx.info

Track history (hours):
 
Tides and Currents Weather Stations Pressure Air Temp Water Temp Dewpoint Dewpoint Depression Visibility Wind Speed Wind Dir Waves Ship Positions

Betagas

Last reported at 2016-May-03 00:33 UTC. Time now 2016-May-03 01:13 UTC.
Position N 54°22' E 010°09'.

Length 114.6 m; beam 15.7 m; draft 7.4 m.

Type: Tanker. MMSI: 304050636.

Date/timePositionNaut miles runAvg speedWind from/ knotsBaromVisibWave heightAir tempDewpointWater temp
2016-May-03 00:33N 54°22' E 010°09'2 1.8
2016-May-02 23:34N 54°23' E 010°11'10 9.7
2016-May-02 22:29N 54°31' E 010°22'1010.9
2016-May-02 21:33N 54°35' E 010°38'1111.1
2016-May-02 20:33N 54°36' E 010°58'1111.5
2016-May-02 19:33N 54°34' E 011°17'1312.8
2016-May-02 18:33N 54°29' E 011°37'1211.9
2016-May-02 17:33N 54°26' E 011°57'1110.7
2016-May-02 16:33N 54°32' E 012°12'1212.2
2016-May-02 15:33N 54°41' E 012°26'1312.7
2016-May-02 14:33N 54°48' E 012°45'1212.3
2016-May-02 13:33N 54°52' E 013°05'1211.4
2016-May-02 12:32N 54°56' E 013°24'1111.6
2016-May-02 11:33N 54°60' E 013°43'1211.7
2016-May-02 10:33N 55°04' E 014°02'1111.3
2016-May-02 09:34N 55°12' E 014°15'1111.5
2016-May-02 08:33N 55°21' E 014°28'1211.9
2016-May-02 07:33N 55°29' E 014°43'1111.4
2016-May-02 06:34N 55°35' E 015°01'1111.2
2016-May-02 05:33N 55°40' E 015°18'1211.3
2016-May-02 04:27N 55°46' E 015°38'1011.2
2016-May-02 03:33N 55°51' E 015°53'1211.2
2016-May-02 02:30N 55°57' E 016°12'  
2016-Apr-26 20:20N 55°40' E 015°33'8 9.7
2016-Apr-26 19:33N 55°36' E 015°21'10 9.7
2016-Apr-26 18:33N 55°32' E 015°06'10 9.8
2016-Apr-26 17:33N 55°27' E 014°51'10 9.5
2016-Apr-26 16:33N 55°22' E 014°37'1010.4
2016-Apr-26 15:33N 55°14' E 014°25'1110.6
2016-Apr-26 14:33N 55°05' E 014°14'1010.4
2016-Apr-26 13:33N 54°59' E 013°59'1111.0
2016-Apr-26 12:32N 54°56' E 013°41'3210.6
2016-Apr-26 09:33N 54°46' E 012°48'1110.8
2016-Apr-26 08:33N 54°41' E 012°32'1410.6
2016-Apr-26 07:15N 54°30' E 012°16'710.6
2016-Apr-26 06:33N 54°25' E 012°08'1010.3
2016-Apr-26 05:33N 54°24' E 011°51'1010.2
2016-Apr-26 04:33N 54°28' E 011°35'1010.1
2016-Apr-26 03:33N 54°33' E 011°19'9 9.0
2016-Apr-26 02:33N 54°35' E 011°04'1010.1
2016-Apr-26 01:33N 54°34' E 010°47'1110.9
2016-Apr-26 00:33N 54°32' E 010°28'1111.3
2016-Apr-25 23:33N 54°25' E 010°13'4 4.1
2016-Apr-25 22:33N 54°22' E 010°08'5 4.8
2016-Apr-25 21:33N 54°21' E 010°00'7 7.5
2016-Apr-25 20:33N 54°22' E 009°47'8 7.5
2016-Apr-25 19:30N 54°16' E 009°38'7 7.6
2016-Apr-25 18:32N 54°11' E 009°29'9 7.2
2016-Apr-25 17:20N 54°05' E 009°19'4 4.6
2016-Apr-25 16:34N 54°01' E 009°18'8 7.5
2016-Apr-25 15:33N 53°55' E 009°11'2 1.8
2016-Apr-25 14:33N 53°54' E 009°09'8 8.4
2016-Apr-25 13:33N 53°51' E 008°55'7 7.1
2016-Apr-25 12:34N 53°52' E 008°44'1010.3
2016-Apr-25 11:33N 53°52' E 009°01'1211.8
2016-Apr-25 10:33N 53°50' E 009°21'1312.5
2016-Apr-25 09:33N 53°39' E 009°31'0 0.0
2016-Apr-25 08:33N 53°39' E 009°31'0 0.0
2016-Apr-25 07:33N 53°39' E 009°31'0 0.0
2016-Apr-25 06:33N 53°39' E 009°31'0 0.0
2016-Apr-25 05:33N 53°39' E 009°31'0 0.0
2016-Apr-25 04:33N 53°39' E 009°31'0 0.0
2016-Apr-25 03:33N 53°39' E 009°31'0 0.0
2016-Apr-25 02:33N 53°39' E 009°31'0 0.0
2016-Apr-25 01:33N 53°39' E 009°31'0 0.0
2016-Apr-25 00:30N 53°39' E 009°31'0 0.0
2016-Apr-24 23:32N 53°39' E 009°31'0 0.0
2016-Apr-24 22:32N 53°39' E 009°31'0 0.0
2016-Apr-24 21:32N 53°39' E 009°31'0 0.0
2016-Apr-24 20:29N 53°39' E 009°31'0 0.0
2016-Apr-24 19:32N 53°39' E 009°31'0 0.0
2016-Apr-24 18:29N 53°39' E 009°31'0 0.0
2016-Apr-24 17:32N 53°39' E 009°31'0 0.0
2016-Apr-24 16:32N 53°39' E 009°31'0 0.0
2016-Apr-24 15:32N 53°39' E 009°31'0 0.0
2016-Apr-24 14:32N 53°39' E 009°31'0 0.2
2016-Apr-24 13:33N 53°39' E 009°31'1 1.3
2016-Apr-24 12:32N 53°40' E 009°30'0 0.0
2016-Apr-24 11:32N 53°40' E 009°30'0 0.2
2016-Apr-24 10:32N 53°40' E 009°30'0 0.0
2016-Apr-24 09:32N 53°40' E 009°30'0 0.0
2016-Apr-24 08:32N 53°40' E 009°30'0 0.0
2016-Apr-24 07:32N 53°40' E 009°30'0 0.0
2016-Apr-24 06:32N 53°40' E 009°30'0 0.0
2016-Apr-24 05:32N 53°40' E 009°30'0 0.4
2016-Apr-24 04:33N 53°41' E 009°30'1212.2
2016-Apr-24 03:33N 53°51' E 009°19'1312.9
2016-Apr-24 02:33N 53°51' E 008°57'1312.8
2016-Apr-24 01:33N 53°57' E 008°38'1413.0
2016-Apr-24 00:29N 53°60' E 008°15'6 6.5
2016-Apr-23 23:33N 54°02' E 008°06'1 1.3
2016-Apr-23 22:28N 54°03' E 008°08'0 0.0
2016-Apr-23 21:32N 54°03' E 008°08'0 0.0
2016-Apr-23 20:32N 54°03' E 008°08'0 0.1
2016-Apr-23 19:32N 54°03' E 008°08'0 0.0
2016-Apr-23 18:32N 54°03' E 008°08'0 0.1
2016-Apr-23 17:31N 54°03' E 008°08'0 0.0
2016-Apr-23 16:32N 54°03' E 008°08'0 0.0
2016-Apr-23 15:32N 54°03' E 008°08'0 0.1
2016-Apr-23 14:32N 54°03' E 008°08'0 0.0
2016-Apr-23 13:31N 54°03' E 008°08'0 0.1
2016-Apr-23 12:31N 54°03' E 008°08'0 0.0
2016-Apr-23 11:26N 54°03' E 008°08'0 0.0
2016-Apr-23 10:32N 54°03' E 008°08'0 0.0
2016-Apr-23 09:32N 54°03' E 008°08'0 0.0
2016-Apr-23 08:32N 54°03' E 008°08'0 0.1
2016-Apr-23 07:32N 54°03' E 008°08'0 0.1
2016-Apr-23 06:32N 54°03' E 008°08'0 0.1
2016-Apr-23 05:31N 54°03' E 008°08'0 0.0
2016-Apr-23 04:32N 54°03' E 008°08'0 0.0
2016-Apr-23 03:31N 54°03' E 008°08'0 0.1
2016-Apr-23 02:31N 54°03' E 008°08'0 0.1
2016-Apr-23 01:29N 54°03' E 008°08'  
Track history (hours):
 
Tides and Currents Weather Stations Pressure Air Temp Water Temp Dewpoint Dewpoint Depression Visibility Wind Speed Wind Dir Waves Ship Positions

Betagas

Last reported at 2016-May-03 00:33 UTC. Time now 2016-May-03 01:13 UTC.
Position N 54°22' E 010°09'.

Length 114.6 m; beam 15.7 m; draft 7.4 m.

Type: Tanker. MMSI: 304050636.

Date/timePositionNaut miles runAvg speedWind from/ knotsBaromVisibWave heightAir tempDewpointWater temp
2016-May-03 00:33N 54°22' E 010°09'2 1.8
2016-May-02 23:34N 54°23' E 010°11'10 9.7
2016-May-02 22:29N 54°31' E 010°22'1010.9
2016-May-02 21:33N 54°35' E 010°38'1111.1
2016-May-02 20:33N 54°36' E 010°58'1111.5
2016-May-02 19:33N 54°34' E 011°17'1312.8
2016-May-02 18:33N 54°29' E 011°37'1211.9
2016-May-02 17:33N 54°26' E 011°57'1110.7
2016-May-02 16:33N 54°32' E 012°12'1212.2
2016-May-02 15:33N 54°41' E 012°26'1312.7
2016-May-02 14:33N 54°48' E 012°45'1212.3
2016-May-02 13:33N 54°52' E 013°05'1211.4
2016-May-02 12:32N 54°56' E 013°24'1111.6
2016-May-02 11:33N 54°60' E 013°43'1211.7
2016-May-02 10:33N 55°04' E 014°02'1111.3
2016-May-02 09:34N 55°12' E 014°15'1111.5
2016-May-02 08:33N 55°21' E 014°28'1211.9
2016-May-02 07:33N 55°29' E 014°43'1111.4
2016-May-02 06:34N 55°35' E 015°01'1111.2
2016-May-02 05:33N 55°40' E 015°18'1211.3
2016-May-02 04:27N 55°46' E 015°38'1011.2
2016-May-02 03:33N 55°51' E 015°53'1211.2
2016-May-02 02:30N 55°57' E 016°12'  
2016-Apr-26 20:20N 55°40' E 015°33'8 9.7
2016-Apr-26 19:33N 55°36' E 015°21'10 9.7
2016-Apr-26 18:33N 55°32' E 015°06'10 9.8
2016-Apr-26 17:33N 55°27' E 014°51'10 9.5
2016-Apr-26 16:33N 55°22' E 014°37'1010.4
2016-Apr-26 15:33N 55°14' E 014°25'1110.6
2016-Apr-26 14:33N 55°05' E 014°14'1010.4
2016-Apr-26 13:33N 54°59' E 013°59'1111.0
2016-Apr-26 12:32N 54°56' E 013°41'3210.6
2016-Apr-26 09:33N 54°46' E 012°48'1110.8
2016-Apr-26 08:33N 54°41' E 012°32'1410.6
2016-Apr-26 07:15N 54°30' E 012°16'710.6
2016-Apr-26 06:33N 54°25' E 012°08'1010.3
2016-Apr-26 05:33N 54°24' E 011°51'1010.2
2016-Apr-26 04:33N 54°28' E 011°35'1010.1
2016-Apr-26 03:33N 54°33' E 011°19'9 9.0
2016-Apr-26 02:33N 54°35' E 011°04'1010.1
2016-Apr-26 01:33N 54°34' E 010°47'1110.9
2016-Apr-26 00:33N 54°32' E 010°28'1111.3
2016-Apr-25 23:33N 54°25' E 010°13'4 4.1
2016-Apr-25 22:33N 54°22' E 010°08'5 4.8
2016-Apr-25 21:33N 54°21' E 010°00'7 7.5
2016-Apr-25 20:33N 54°22' E 009°47'8 7.5
2016-Apr-25 19:30N 54°16' E 009°38'7 7.6
2016-Apr-25 18:32N 54°11' E 009°29'9 7.2
2016-Apr-25 17:20N 54°05' E 009°19'4 4.6
2016-Apr-25 16:34N 54°01' E 009°18'8 7.5
2016-Apr-25 15:33N 53°55' E 009°11'2 1.8
2016-Apr-25 14:33N 53°54' E 009°09'8 8.4
2016-Apr-25 13:33N 53°51' E 008°55'7 7.1
2016-Apr-25 12:34N 53°52' E 008°44'1010.3
2016-Apr-25 11:33N 53°52' E 009°01'1211.8
2016-Apr-25 10:33N 53°50' E 009°21'1312.5
2016-Apr-25 09:33N 53°39' E 009°31'0 0.0
2016-Apr-25 08:33N 53°39' E 009°31'0 0.0
2016-Apr-25 07:33N 53°39' E 009°31'0 0.0
2016-Apr-25 06:33N 53°39' E 009°31'0 0.0
2016-Apr-25 05:33N 53°39' E 009°31'0 0.0
2016-Apr-25 04:33N 53°39' E 009°31'0 0.0
2016-Apr-25 03:33N 53°39' E 009°31'0 0.0
2016-Apr-25 02:33N 53°39' E 009°31'0 0.0
2016-Apr-25 01:33N 53°39' E 009°31'0 0.0
2016-Apr-25 00:30N 53°39' E 009°31'0 0.0
2016-Apr-24 23:32N 53°39' E 009°31'0 0.0
2016-Apr-24 22:32N 53°39' E 009°31'0 0.0
2016-Apr-24 21:32N 53°39' E 009°31'0 0.0
2016-Apr-24 20:29N 53°39' E 009°31'0 0.0
2016-Apr-24 19:32N 53°39' E 009°31'0 0.0
2016-Apr-24 18:29N 53°39' E 009°31'0 0.0
2016-Apr-24 17:32N 53°39' E 009°31'0 0.0
2016-Apr-24 16:32N 53°39' E 009°31'0 0.0
2016-Apr-24 15:32N 53°39' E 009°31'0 0.0
2016-Apr-24 14:32N 53°39' E 009°31'0 0.2
2016-Apr-24 13:33N 53°39' E 009°31'1 1.3
2016-Apr-24 12:32N 53°40' E 009°30'0 0.0
2016-Apr-24 11:32N 53°40' E 009°30'0 0.2
2016-Apr-24 10:32N 53°40' E 009°30'0 0.0
2016-Apr-24 09:32N 53°40' E 009°30'0 0.0
2016-Apr-24 08:32N 53°40' E 009°30'0 0.0
2016-Apr-24 07:32N 53°40' E 009°30'0 0.0
2016-Apr-24 06:32N 53°40' E 009°30'0 0.0
2016-Apr-24 05:32N 53°40' E 009°30'0 0.4
2016-Apr-24 04:33N 53°41' E 009°30'1212.2
2016-Apr-24 03:33N 53°51' E 009°19'1312.9
2016-Apr-24 02:33N 53°51' E 008°57'1312.8
2016-Apr-24 01:33N 53°57' E 008°38'1413.0
2016-Apr-24 00:29N 53°60' E 008°15'6 6.5
2016-Apr-23 23:33N 54°02' E 008°06'1 1.3
2016-Apr-23 22:28N 54°03' E 008°08'0 0.0
2016-Apr-23 21:32N 54°03' E 008°08'0 0.0
2016-Apr-23 20:32N 54°03' E 008°08'0 0.1
2016-Apr-23 19:32N 54°03' E 008°08'0 0.0
2016-Apr-23 18:32N 54°03' E 008°08'0 0.1
2016-Apr-23 17:31N 54°03' E 008°08'0 0.0
2016-Apr-23 16:32N 54°03' E 008°08'0 0.0
2016-Apr-23 15:32N 54°03' E 008°08'0 0.1
2016-Apr-23 14:32N 54°03' E 008°08'0 0.0
2016-Apr-23 13:31N 54°03' E 008°08'0 0.1
2016-Apr-23 12:31N 54°03' E 008°08'0 0.0
2016-Apr-23 11:26N 54°03' E 008°08'0 0.0
2016-Apr-23 10:32N 54°03' E 008°08'0 0.0
2016-Apr-23 09:32N 54°03' E 008°08'0 0.0
2016-Apr-23 08:32N 54°03' E 008°08'0 0.1
2016-Apr-23 07:32N 54°03' E 008°08'0 0.1
2016-Apr-23 06:32N 54°03' E 008°08'0 0.1
2016-Apr-23 05:31N 54°03' E 008°08'0 0.0
2016-Apr-23 04:32N 54°03' E 008°08'0 0.0
2016-Apr-23 03:31N 54°03' E 008°08'0 0.1
2016-Apr-23 02:31N 54°03' E 008°08'0 0.1
2016-Apr-23 01:29N 54°03' E 008°08'  

Dump ship's entire track history